sensor_id;sensor_type;location;lat;lon;timestamp;pressure;altitude;pressure_sealevel;temperature
68510;BMP180;55512;50.102;19.958;2022-11-18T00:00:53;97312.20;;;1.96
68510;BMP180;55512;50.102;19.958;2022-11-18T00:03:19;97309.20;;;1.90
68510;BMP180;55512;50.102;19.958;2022-11-18T00:05:57;97316.80;;;1.90
68510;BMP180;55512;50.102;19.958;2022-11-18T00:08:24;97311.60;;;1.92
68510;BMP180;55512;50.102;19.958;2022-11-18T00:10:51;97313.60;;;1.90
68510;BMP180;55512;50.102;19.958;2022-11-18T00:13:19;97321.20;;;1.90
68510;BMP180;55512;50.102;19.958;2022-11-18T00:16:08;97318.20;;;1.92
68510;BMP180;55512;50.102;19.958;2022-11-18T00:18:35;97317.00;;;2.00
68510;BMP180;55512;50.102;19.958;2022-11-18T00:21:09;97309.20;;;2.00
68510;BMP180;55512;50.102;19.958;2022-11-18T00:23:36;97300.00;;;2.00
68510;BMP180;55512;50.102;19.958;2022-11-18T00:26:12;97305.60;;;2.00
68510;BMP180;55512;50.102;19.958;2022-11-18T00:35:40;97309.80;;;1.90
68510;BMP180;55512;50.102;19.958;2022-11-18T00:38:06;97312.00;;;1.90
68510;BMP180;55512;50.102;19.958;2022-11-18T00:40:31;97316.60;;;1.94
68510;BMP180;55512;50.102;19.958;2022-11-18T00:42:57;97308.00;;;1.94
68510;BMP180;55512;50.102;19.958;2022-11-18T00:45:22;97309.60;;;1.90
68510;BMP180;55512;50.102;19.958;2022-11-18T00:47:48;97306.00;;;1.90
68510;BMP180;55512;50.102;19.958;2022-11-18T00:50:14;97303.80;;;1.90
68510;BMP180;55512;50.102;19.958;2022-11-18T00:52:40;97306.00;;;1.92
68510;BMP180;55512;50.102;19.958;2022-11-18T00:55:06;97310.20;;;1.92
68510;BMP180;55512;50.102;19.958;2022-11-18T00:57:31;97313.60;;;1.94
68510;BMP180;55512;50.102;19.958;2022-11-18T00:59:57;97316.60;;;1.92
68510;BMP180;55512;50.102;19.958;2022-11-18T01:02:22;97321.80;;;1.94
68510;BMP180;55512;50.102;19.958;2022-11-18T01:04:48;97313.40;;;1.90
68510;BMP180;55512;50.102;19.958;2022-11-18T01:07:13;97307.00;;;1.90
68510;BMP180;55512;50.102;19.958;2022-11-18T01:09:39;97308.60;;;1.92
68510;BMP180;55512;50.102;19.958;2022-11-18T01:12:04;97303.40;;;1.90
68510;BMP180;55512;50.102;19.958;2022-11-18T01:14:48;97295.60;;;1.90
68510;BMP180;55512;50.102;19.958;2022-11-18T01:17:13;97302.00;;;1.90
68510;BMP180;55512;50.102;19.958;2022-11-18T01:19:39;97300.00;;;1.90
68510;BMP180;55512;50.102;19.958;2022-11-18T01:22:05;97292.80;;;1.90
68510;BMP180;55512;50.102;19.958;2022-11-18T01:24:32;97297.40;;;1.90
68510;BMP180;55512;50.102;19.958;2022-11-18T01:27:00;97293.60;;;1.90
68510;BMP180;55512;50.102;19.958;2022-11-18T01:29:25;97291.80;;;1.90
68510;BMP180;55512;50.102;19.958;2022-11-18T01:31:51;97286.00;;;1.90
68510;BMP180;55512;50.102;19.958;2022-11-18T01:34:16;97280.20;;;1.88
68510;BMP180;55512;50.102;19.958;2022-11-18T01:36:42;97277.80;;;1.88
68510;BMP180;55512;50.102;19.958;2022-11-18T01:39:07;97283.40;;;1.86
68510;BMP180;55512;50.102;19.958;2022-11-18T01:41:33;97291.20;;;1.84
68510;BMP180;55512;50.102;19.958;2022-11-18T01:44:51;97290.60;;;1.80
68510;BMP180;55512;50.102;19.958;2022-11-18T01:46:50;97293.60;;;1.80
68510;BMP180;55512;50.102;19.958;2022-11-18T01:49:16;97292.40;;;1.80
68510;BMP180;55512;50.102;19.958;2022-11-18T01:51:54;97295.80;;;1.80
68510;BMP180;55512;50.102;19.958;2022-11-18T01:54:29;97295.60;;;1.80
68510;BMP180;55512;50.102;19.958;2022-11-18T01:57:02;97285.00;;;1.80
68510;BMP180;55512;50.102;19.958;2022-11-18T01:59:35;97276.20;;;1.80
68510;BMP180;55512;50.102;19.958;2022-11-18T02:02:11;97271.20;;;1.84
68510;BMP180;55512;50.102;19.958;2022-11-18T02:04:42;97274.40;;;1.82
68510;BMP180;55512;50.102;19.958;2022-11-18T02:07:09;97271.00;;;1.80
68510;BMP180;55512;50.102;19.958;2022-11-18T02:09:36;97278.60;;;1.80
68510;BMP180;55512;50.102;19.958;2022-11-18T02:12:03;97269.60;;;1.80
68510;BMP180;55512;50.102;19.958;2022-11-18T02:14:33;97262.20;;;1.80
68510;BMP180;55512;50.102;19.958;2022-11-18T02:17:25;97266.20;;;1.80
68510;BMP180;55512;50.102;19.958;2022-11-18T02:26:54;97257.20;;;1.80
68510;BMP180;55512;50.102;19.958;2022-11-18T02:29:58;97251.40;;;1.80
68510;BMP180;55512;50.102;19.958;2022-11-18T02:32:31;97245.60;;;1.80
68510;BMP180;55512;50.102;19.958;2022-11-18T02:35:51;97242.00;;;1.80
68510;BMP180;55512;50.102;19.958;2022-11-18T02:38:27;97239.40;;;1.80
68510;BMP180;55512;50.102;19.958;2022-11-18T02:41:01;97242.60;;;1.80
68510;BMP180;55512;50.102;19.958;2022-11-18T02:43:37;97231.00;;;1.74
68510;BMP180;55512;50.102;19.958;2022-11-18T02:46:10;97226.40;;;1.76
68510;BMP180;55512;50.102;19.958;2022-11-18T02:48:47;97232.60;;;1.72
68510;BMP180;55512;50.102;19.958;2022-11-18T02:51:18;97234.80;;;1.74
68510;BMP180;55512;50.102;19.958;2022-11-18T02:53:47;97239.20;;;1.78
68510;BMP180;55512;50.102;19.958;2022-11-18T02:56:16;97236.00;;;1.78
68510;BMP180;55512;50.102;19.958;2022-11-18T02:58:43;97240.00;;;1.76
68510;BMP180;55512;50.102;19.958;2022-11-18T03:01:23;97242.80;;;1.74
68510;BMP180;55512;50.102;19.958;2022-11-18T03:03:49;97258.80;;;1.70
68510;BMP180;55512;50.102;19.958;2022-11-18T03:06:32;97260.00;;;1.70
68510;BMP180;55512;50.102;19.958;2022-11-18T03:09:13;97258.80;;;1.70
68510;BMP180;55512;50.102;19.958;2022-11-18T03:18:21;97243.40;;;1.60
68510;BMP180;55512;50.102;19.958;2022-11-18T03:21:09;97242.40;;;1.60
68510;BMP180;55512;50.102;19.958;2022-11-18T03:23:54;97239.40;;;1.60
68510;BMP180;55512;50.102;19.958;2022-11-18T03:26:30;97233.40;;;1.60
68510;BMP180;55512;50.102;19.958;2022-11-18T03:29:19;97228.00;;;1.60
68510;BMP180;55512;50.102;19.958;2022-11-18T03:32:02;97224.80;;;1.60
68510;BMP180;55512;50.102;19.958;2022-11-18T03:34:46;97224.80;;;1.60
68510;BMP180;55512;50.102;19.958;2022-11-18T03:37:17;97226.00;;;1.60
68510;BMP180;55512;50.102;19.958;2022-11-18T03:39:58;97229.60;;;1.60
68510;BMP180;55512;50.102;19.958;2022-11-18T03:42:43;97230.40;;;1.54
68510;BMP180;55512;50.102;19.958;2022-11-18T03:45:19;97232.40;;;1.58
68510;BMP180;55512;50.102;19.958;2022-11-18T03:47:54;97236.20;;;1.54
68510;BMP180;55512;50.102;19.958;2022-11-18T03:50:28;97233.60;;;1.54
68510;BMP180;55512;50.102;19.958;2022-11-18T03:52:55;97233.80;;;1.56
68510;BMP180;55512;50.102;19.958;2022-11-18T03:55:25;97231.00;;;1.58
68510;BMP180;55512;50.102;19.958;2022-11-18T03:58:08;97226.40;;;1.58
68510;BMP180;55512;50.102;19.958;2022-11-18T04:00:41;97218.40;;;1.58
68510;BMP180;55512;50.102;19.958;2022-11-18T04:03:09;97215.80;;;1.60
68510;BMP180;55512;50.102;19.958;2022-11-18T04:05:39;97205.40;;;1.60
68510;BMP180;55512;50.102;19.958;2022-11-18T04:08:17;97208.40;;;1.60
68510;BMP180;55512;50.102;19.958;2022-11-18T04:10:55;97205.20;;;1.60
68510;BMP180;55512;50.102;19.958;2022-11-18T04:13:26;97202.80;;;1.60
68510;BMP180;55512;50.102;19.958;2022-11-18T04:15:54;97205.80;;;1.58
68510;BMP180;55512;50.102;19.958;2022-11-18T04:18:20;97199.20;;;1.58
68510;BMP180;55512;50.102;19.958;2022-11-18T04:20:46;97200.00;;;1.50
68510;BMP180;55512;50.102;19.958;2022-11-18T04:23:11;97205.40;;;1.50
68510;BMP180;55512;50.102;19.958;2022-11-18T04:25:37;97204.40;;;1.50
68510;BMP180;55512;50.102;19.958;2022-11-18T04:28:03;97200.60;;;1.50
68510;BMP180;55512;50.102;19.958;2022-11-18T04:30:30;97203.80;;;1.50
68510;BMP180;55512;50.102;19.958;2022-11-18T04:32:56;97194.80;;;1.50
68510;BMP180;55512;50.102;19.958;2022-11-18T04:35:21;97198.00;;;1.50
68510;BMP180;55512;50.102;19.958;2022-11-18T04:37:47;97197.00;;;1.50
68510;BMP180;55512;50.102;19.958;2022-11-18T04:40:12;97201.80;;;1.50
68510;BMP180;55512;50.102;19.958;2022-11-18T04:42:38;97203.20;;;1.50
68510;BMP180;55512;50.102;19.958;2022-11-18T04:45:04;97196.00;;;1.50
68510;BMP180;55512;50.102;19.958;2022-11-18T04:47:30;97198.20;;;1.50
68510;BMP180;55512;50.102;19.958;2022-11-18T04:49:55;97201.60;;;1.50
68510;BMP180;55512;50.102;19.958;2022-11-18T04:52:21;97199.40;;;1.50
68510;BMP180;55512;50.102;19.958;2022-11-18T04:54:46;97195.20;;;1.50
68510;BMP180;55512;50.102;19.958;2022-11-18T04:57:12;97192.80;;;1.50
68510;BMP180;55512;50.102;19.958;2022-11-18T04:59:38;97189.80;;;1.50
68510;BMP180;55512;50.102;19.958;2022-11-18T05:02:04;97192.00;;;1.50
68510;BMP180;55512;50.102;19.958;2022-11-18T05:04:33;97197.20;;;1.50
68510;BMP180;55512;50.102;19.958;2022-11-18T05:07:01;97195.60;;;1.50
68510;BMP180;55512;50.102;19.958;2022-11-18T05:09:28;97200.80;;;1.50
68510;BMP180;55512;50.102;19.958;2022-11-18T05:11:53;97197.40;;;1.50
68510;BMP180;55512;50.102;19.958;2022-11-18T05:14:38;97203.00;;;1.50
68510;BMP180;55512;50.102;19.958;2022-11-18T05:17:06;97208.80;;;1.50
68510;BMP180;55512;50.102;19.958;2022-11-18T05:19:32;97205.00;;;1.50
68510;BMP180;55512;50.102;19.958;2022-11-18T05:21:58;97209.80;;;1.50
68510;BMP180;55512;50.102;19.958;2022-11-18T05:24:23;97218.00;;;1.50
68510;BMP180;55512;50.102;19.958;2022-11-18T05:26:51;97216.60;;;1.50
68510;BMP180;55512;50.102;19.958;2022-11-18T05:29:18;97221.60;;;1.50
68510;BMP180;55512;50.102;19.958;2022-11-18T05:31:45;97219.60;;;1.50
68510;BMP180;55512;50.102;19.958;2022-11-18T05:34:12;97222.00;;;1.50
68510;BMP180;55512;50.102;19.958;2022-11-18T05:36:38;97227.40;;;1.58
68510;BMP180;55512;50.102;19.958;2022-11-18T05:39:03;97229.20;;;1.58
68510;BMP180;55512;50.102;19.958;2022-11-18T05:41:29;97218.80;;;1.60
68510;BMP180;55512;50.102;19.958;2022-11-18T05:44:13;97226.60;;;1.60
68510;BMP180;55512;50.102;19.958;2022-11-18T05:46:39;97229.20;;;1.60
68510;BMP180;55512;50.102;19.958;2022-11-18T05:49:04;97226.20;;;1.60
68510;BMP180;55512;50.102;19.958;2022-11-18T05:51:33;97225.20;;;1.56
68510;BMP180;55512;50.102;19.958;2022-11-18T05:54:03;97225.40;;;1.56
68510;BMP180;55512;50.102;19.958;2022-11-18T05:56:35;97224.20;;;1.52
68510;BMP180;55512;50.102;19.958;2022-11-18T05:59:01;97227.60;;;1.52
68510;BMP180;55512;50.102;19.958;2022-11-18T06:04:22;97219.60;;;1.50
68510;BMP180;55512;50.102;19.958;2022-11-18T06:06:51;97222.60;;;1.50
68510;BMP180;55512;50.102;19.958;2022-11-18T06:09:23;97225.80;;;1.50
68510;BMP180;55512;50.102;19.958;2022-11-18T06:11:54;97229.00;;;1.50
68510;BMP180;55512;50.102;19.958;2022-11-18T06:14:48;97237.80;;;1.46
68510;BMP180;55512;50.102;19.958;2022-11-18T06:17:25;97243.40;;;1.42
68510;BMP180;55512;50.102;19.958;2022-11-18T06:19:53;97242.60;;;1.42
68510;BMP180;55512;50.102;19.958;2022-11-18T06:22:19;97245.40;;;1.50
68510;BMP180;55512;50.102;19.958;2022-11-18T06:24:45;97255.00;;;1.48
68510;BMP180;55512;50.102;19.958;2022-11-18T06:27:11;97258.20;;;1.48
68510;BMP180;55512;50.102;19.958;2022-11-18T06:29:38;97253.40;;;1.44
68510;BMP180;55512;50.102;19.958;2022-11-18T06:32:04;97261.20;;;1.44
68510;BMP180;55512;50.102;19.958;2022-11-18T06:34:29;97266.40;;;1.40
68510;BMP180;55512;50.102;19.958;2022-11-18T06:36:55;97268.60;;;1.40
68510;BMP180;55512;50.102;19.958;2022-11-18T06:39:20;97256.40;;;1.40
68510;BMP180;55512;50.102;19.958;2022-11-18T06:41:46;97264.00;;;1.40
68510;BMP180;55512;50.102;19.958;2022-11-18T06:44:12;97266.20;;;1.40
68510;BMP180;55512;50.102;19.958;2022-11-18T06:46:37;97270.40;;;1.44
68510;BMP180;55512;50.102;19.958;2022-11-18T06:49:23;97267.60;;;1.40
68510;BMP180;55512;50.102;19.958;2022-11-18T06:51:49;97271.20;;;1.40
68510;BMP180;55512;50.102;19.958;2022-11-18T06:54:14;97281.40;;;1.40
68510;BMP180;55512;50.102;19.958;2022-11-18T06:56:40;97279.40;;;1.40
68510;BMP180;55512;50.102;19.958;2022-11-18T06:59:05;97284.00;;;1.40
68510;BMP180;55512;50.102;19.958;2022-11-18T07:01:35;97282.80;;;1.40
68510;BMP180;55512;50.102;19.958;2022-11-18T07:04:02;97285.00;;;1.40
68510;BMP180;55512;50.102;19.958;2022-11-18T07:06:31;97283.60;;;1.40
68510;BMP180;55512;50.102;19.958;2022-11-18T07:09:00;97291.20;;;1.40
68510;BMP180;55512;50.102;19.958;2022-11-18T07:11:26;97289.60;;;1.42
68510;BMP180;55512;50.102;19.958;2022-11-18T07:13:52;97298.20;;;1.50
68510;BMP180;55512;50.102;19.958;2022-11-18T07:16:24;97303.20;;;1.50
68510;BMP180;55512;50.102;19.958;2022-11-18T07:18:52;97305.60;;;1.50
68510;BMP180;55512;50.102;19.958;2022-11-18T07:21:23;97299.00;;;1.50
68510;BMP180;55512;50.102;19.958;2022-11-18T07:23:49;97287.40;;;1.50
68510;BMP180;55512;50.102;19.958;2022-11-18T07:26:15;97288.40;;;1.50
68510;BMP180;55512;50.102;19.958;2022-11-18T07:28:41;97288.00;;;1.50
68510;BMP180;55512;50.102;19.958;2022-11-18T07:31:11;97283.20;;;1.50
68510;BMP180;55512;50.102;19.958;2022-11-18T07:33:39;97287.20;;;1.50
68510;BMP180;55512;50.102;19.958;2022-11-18T07:36:15;97289.60;;;1.50
68510;BMP180;55512;50.102;19.958;2022-11-18T07:38:41;97283.20;;;1.50
68510;BMP180;55512;50.102;19.958;2022-11-18T07:43:37;97283.20;;;1.50
68510;BMP180;55512;50.102;19.958;2022-11-18T07:46:16;97280.80;;;1.50
68510;BMP180;55512;50.102;19.958;2022-11-18T07:48:44;97267.20;;;1.50
68510;BMP180;55512;50.102;19.958;2022-11-18T07:51:10;97268.80;;;1.50
68510;BMP180;55512;50.102;19.958;2022-11-18T07:53:36;97265.20;;;1.50
68510;BMP180;55512;50.102;19.958;2022-11-18T07:56:03;97253.40;;;1.50
68510;BMP180;55512;50.102;19.958;2022-11-18T07:58:29;97257.20;;;1.50
68510;BMP180;55512;50.102;19.958;2022-11-18T08:00:55;97262.60;;;1.50
68510;BMP180;55512;50.102;19.958;2022-11-18T08:03:25;97263.00;;;1.50
68510;BMP180;55512;50.102;19.958;2022-11-18T08:05:57;97262.40;;;1.50
68510;BMP180;55512;50.102;19.958;2022-11-18T08:08:22;97259.20;;;1.50
68510;BMP180;55512;50.102;19.958;2022-11-18T08:10:48;97268.00;;;1.50
68510;BMP180;55512;50.102;19.958;2022-11-18T08:13:13;97276.00;;;1.50
68510;BMP180;55512;50.102;19.958;2022-11-18T08:15:42;97279.00;;;1.50
68510;BMP180;55512;50.102;19.958;2022-11-18T08:18:08;97272.40;;;1.50
68510;BMP180;55512;50.102;19.958;2022-11-18T08:20:34;97278.00;;;1.50
68510;BMP180;55512;50.102;19.958;2022-11-18T08:23:00;97279.60;;;1.50
68510;BMP180;55512;50.102;19.958;2022-11-18T08:25:25;97274.60;;;1.50
68510;BMP180;55512;50.102;19.958;2022-11-18T08:27:51;97274.80;;;1.50
68510;BMP180;55512;50.102;19.958;2022-11-18T08:30:17;97278.00;;;1.50
68510;BMP180;55512;50.102;19.958;2022-11-18T08:32:43;97275.00;;;1.58
68510;BMP180;55512;50.102;19.958;2022-11-18T08:35:09;97280.60;;;1.60
68510;BMP180;55512;50.102;19.958;2022-11-18T08:37:34;97278.20;;;1.60
68510;BMP180;55512;50.102;19.958;2022-11-18T08:40:00;97277.00;;;1.60
68510;BMP180;55512;50.102;19.958;2022-11-18T08:42:25;97283.80;;;1.70
68510;BMP180;55512;50.102;19.958;2022-11-18T08:44:51;97287.20;;;1.70
68510;BMP180;55512;50.102;19.958;2022-11-18T08:47:16;97287.80;;;1.70
68510;BMP180;55512;50.102;19.958;2022-11-18T08:49:42;97288.80;;;1.68
68510;BMP180;55512;50.102;19.958;2022-11-18T08:52:08;97298.80;;;1.60
68510;BMP180;55512;50.102;19.958;2022-11-18T08:54:34;97299.80;;;1.60
68510;BMP180;55512;50.102;19.958;2022-11-18T08:56:59;97291.60;;;1.60
68510;BMP180;55512;50.102;19.958;2022-11-18T08:59:25;97285.20;;;1.62
68510;BMP180;55512;50.102;19.958;2022-11-18T09:01:51;97288.40;;;1.70
68510;BMP180;55512;50.102;19.958;2022-11-18T09:04:17;97286.80;;;1.70
68510;BMP180;55512;50.102;19.958;2022-11-18T09:06:43;97300.00;;;1.70
68510;BMP180;55512;50.102;19.958;2022-11-18T09:09:09;97304.00;;;1.70
68510;BMP180;55512;50.102;19.958;2022-11-18T09:11:37;97308.60;;;1.70
68510;BMP180;55512;50.102;19.958;2022-11-18T09:14:04;97310.80;;;1.70
68510;BMP180;55512;50.102;19.958;2022-11-18T09:16:32;97300.40;;;1.70
68510;BMP180;55512;50.102;19.958;2022-11-18T09:18:59;97300.60;;;1.78
68510;BMP180;55512;50.102;19.958;2022-11-18T09:21:25;97293.00;;;1.80
68510;BMP180;55512;50.102;19.958;2022-11-18T09:23:51;97297.20;;;1.80
68510;BMP180;55512;50.102;19.958;2022-11-18T09:26:19;97301.80;;;1.80
68510;BMP180;55512;50.102;19.958;2022-11-18T09:28:46;97315.60;;;1.80
68510;BMP180;55512;50.102;19.958;2022-11-18T09:31:16;97315.80;;;1.80
68510;BMP180;55512;50.102;19.958;2022-11-18T09:33:41;97314.40;;;1.80
68510;BMP180;55512;50.102;19.958;2022-11-18T09:36:22;97321.00;;;1.70
68510;BMP180;55512;50.102;19.958;2022-11-18T09:38:49;97317.60;;;1.70
68510;BMP180;55512;50.102;19.958;2022-11-18T09:41:48;97315.00;;;1.64
68510;BMP180;55512;50.102;19.958;2022-11-18T09:47:19;97311.00;;;1.60
68510;BMP180;55512;50.102;19.958;2022-11-18T09:49:48;97306.00;;;1.60
68510;BMP180;55512;50.102;19.958;2022-11-18T09:52:22;97309.00;;;1.60
68510;BMP180;55512;50.102;19.958;2022-11-18T09:54:49;97317.00;;;1.66
68510;BMP180;55512;50.102;19.958;2022-11-18T09:57:20;97318.40;;;1.60
68510;BMP180;55512;50.102;19.958;2022-11-18T09:59:47;97314.20;;;1.60
68510;BMP180;55512;50.102;19.958;2022-11-18T10:04:38;97310.00;;;1.70
68510;BMP180;55512;50.102;19.958;2022-11-18T10:07:22;97303.80;;;1.70
68510;BMP180;55512;50.102;19.958;2022-11-18T10:09:54;97310.60;;;1.80
68510;BMP180;55512;50.102;19.958;2022-11-18T10:12:51;97313.40;;;1.80
68510;BMP180;55512;50.102;19.958;2022-11-18T10:15:31;97311.20;;;1.80
68510;BMP180;55512;50.102;19.958;2022-11-18T10:21:17;97320.80;;;1.80
68510;BMP180;55512;50.102;19.958;2022-11-18T10:23:52;97318.80;;;1.80
68510;BMP180;55512;50.102;19.958;2022-11-18T10:26:57;97324.40;;;1.80
68510;BMP180;55512;50.102;19.958;2022-11-18T10:29:24;97327.60;;;1.80
68510;BMP180;55512;50.102;19.958;2022-11-18T10:32:01;97324.40;;;1.80
68510;BMP180;55512;50.102;19.958;2022-11-18T10:34:27;97317.20;;;1.80
68510;BMP180;55512;50.102;19.958;2022-11-18T10:37:30;97317.40;;;1.70
68510;BMP180;55512;50.102;19.958;2022-11-18T10:40:02;97317.20;;;1.70
68510;BMP180;55512;50.102;19.958;2022-11-18T10:42:34;97326.00;;;1.60
68510;BMP180;55512;50.102;19.958;2022-11-18T10:45:29;97326.80;;;1.60
68510;BMP180;55512;50.102;19.958;2022-11-18T10:48:17;97320.80;;;1.60
68510;BMP180;55512;50.102;19.958;2022-11-18T10:50:45;97321.00;;;1.60
68510;BMP180;55512;50.102;19.958;2022-11-18T10:53:35;97323.40;;;1.60
68510;BMP180;55512;50.102;19.958;2022-11-18T10:56:12;97328.00;;;1.60
68510;BMP180;55512;50.102;19.958;2022-11-18T10:58:56;97329.80;;;1.60
68510;BMP180;55512;50.102;19.958;2022-11-18T11:01:24;97325.00;;;1.60
68510;BMP180;55512;50.102;19.958;2022-11-18T11:04:20;97325.80;;;1.50
68510;BMP180;55512;50.102;19.958;2022-11-18T11:06:46;97331.80;;;1.40
68510;BMP180;55512;50.102;19.958;2022-11-18T11:11:41;97333.20;;;1.22
68510;BMP180;55512;50.102;19.958;2022-11-18T11:14:33;97328.00;;;1.20
68510;BMP180;55512;50.102;19.958;2022-11-18T11:17:18;97332.60;;;1.10
68510;BMP180;55512;50.102;19.958;2022-11-18T11:22:17;97332.60;;;1.00
68510;BMP180;55512;50.102;19.958;2022-11-18T11:24:43;97339.20;;;0.90
68510;BMP180;55512;50.102;19.958;2022-11-18T11:30:18;97333.60;;;0.80
68510;BMP180;55512;50.102;19.958;2022-11-18T11:33:21;97335.80;;;0.70
68510;BMP180;55512;50.102;19.958;2022-11-18T11:36:02;97330.60;;;0.70
68510;BMP180;55512;50.102;19.958;2022-11-18T11:41:24;97325.80;;;0.40
68510;BMP180;55512;50.102;19.958;2022-11-18T11:44:28;97321.00;;;0.40
68510;BMP180;55512;50.102;19.958;2022-11-18T11:47:12;97326.00;;;0.22
68510;BMP180;55512;50.102;19.958;2022-11-18T12:05:32;97313.20;;;0.40
68510;BMP180;55512;50.102;19.958;2022-11-18T12:08:07;97315.40;;;0.40
68510;BMP180;55512;50.102;19.958;2022-11-18T12:10:48;97316.60;;;0.40
68510;BMP180;55512;50.102;19.958;2022-11-18T12:13:40;97320.20;;;0.40
68510;BMP180;55512;50.102;19.958;2022-11-18T12:26:49;97326.80;;;0.10
68510;BMP180;55512;50.102;19.958;2022-11-18T12:29:23;97328.80;;;0.10
68510;BMP180;55512;50.102;19.958;2022-11-18T12:31:57;97325.20;;;0.10
68510;BMP180;55512;50.102;19.958;2022-11-18T12:36:50;97336.80;;;0.06
68510;BMP180;55512;50.102;19.958;2022-11-18T12:39:45;97333.20;;;0.02
68510;BMP180;55512;50.102;19.958;2022-11-18T12:42:44;97336.20;;;0.00
68510;BMP180;55512;50.102;19.958;2022-11-18T12:50:56;97332.00;;;-0.10
68510;BMP180;55512;50.102;19.958;2022-11-18T12:53:38;97330.40;;;-0.10
68510;BMP180;55512;50.102;19.958;2022-11-18T12:59:01;97332.40;;;-0.14
68510;BMP180;55512;50.102;19.958;2022-11-18T13:01:30;97340.00;;;-0.10
68510;BMP180;55512;50.102;19.958;2022-11-18T13:04:11;97343.00;;;-0.12
68510;BMP180;55512;50.102;19.958;2022-11-18T13:06:39;97345.00;;;-0.14
68510;BMP180;55512;50.102;19.958;2022-11-18T13:09:28;97342.00;;;-0.12
68510;BMP180;55512;50.102;19.958;2022-11-18T13:12:00;97349.40;;;-0.10
68510;BMP180;55512;50.102;19.958;2022-11-18T13:14:38;97352.00;;;-0.10
68510;BMP180;55512;50.102;19.958;2022-11-18T13:17:40;97352.80;;;-0.10
68510;BMP180;55512;50.102;19.958;2022-11-18T13:20:36;97357.20;;;-0.08
68510;BMP180;55512;50.102;19.958;2022-11-18T13:26:13;97367.60;;;0.00
68510;BMP180;55512;50.102;19.958;2022-11-18T13:31:54;97378.00;;;0.02
68510;BMP180;55512;50.102;19.958;2022-11-18T13:34:28;97383.80;;;0.10
68510;BMP180;55512;50.102;19.958;2022-11-18T13:36:57;97382.60;;;0.10
68510;BMP180;55512;50.102;19.958;2022-11-18T13:39:28;97381.60;;;0.10
68510;BMP180;55512;50.102;19.958;2022-11-18T13:42:12;97377.80;;;0.10
68510;BMP180;55512;50.102;19.958;2022-11-18T13:44:38;97377.60;;;0.10
68510;BMP180;55512;50.102;19.958;2022-11-18T13:47:24;97378.20;;;0.10
68510;BMP180;55512;50.102;19.958;2022-11-18T13:50:18;97376.80;;;0.10
68510;BMP180;55512;50.102;19.958;2022-11-18T13:53:28;97382.60;;;0.20
68510;BMP180;55512;50.102;19.958;2022-11-18T13:56:05;97387.20;;;0.20
68510;BMP180;55512;50.102;19.958;2022-11-18T14:01:04;97388.00;;;0.30
68510;BMP180;55512;50.102;19.958;2022-11-18T14:03:47;97394.20;;;0.30
68510;BMP180;55512;50.102;19.958;2022-11-18T14:06:28;97400.60;;;0.30
68510;BMP180;55512;50.102;19.958;2022-11-18T14:11:42;97402.00;;;0.28
68510;BMP180;55512;50.102;19.958;2022-11-18T14:14:10;97392.00;;;0.30
68510;BMP180;55512;50.102;19.958;2022-11-18T14:16:39;97397.60;;;0.30
68510;BMP180;55512;50.102;19.958;2022-11-18T14:19:05;97395.40;;;0.30
68510;BMP180;55512;50.102;19.958;2022-11-18T14:21:35;97397.60;;;0.26
68510;BMP180;55512;50.102;19.958;2022-11-18T14:24:03;97396.80;;;0.30
68510;BMP180;55512;50.102;19.958;2022-11-18T14:26:36;97402.00;;;0.30
68510;BMP180;55512;50.102;19.958;2022-11-18T14:29:15;97403.20;;;0.28
68510;BMP180;55512;50.102;19.958;2022-11-18T14:32:21;97411.00;;;0.30
68510;BMP180;55512;50.102;19.958;2022-11-18T14:34:59;97413.40;;;0.30
68510;BMP180;55512;50.102;19.958;2022-11-18T14:37:26;97419.80;;;0.30
68510;BMP180;55512;50.102;19.958;2022-11-18T14:39:56;97421.80;;;0.32
68510;BMP180;55512;50.102;19.958;2022-11-18T14:42:23;97422.60;;;0.38
68510;BMP180;55512;50.102;19.958;2022-11-18T14:44:49;97429.60;;;0.30
68510;BMP180;55512;50.102;19.958;2022-11-18T14:47:27;97431.20;;;0.20
68510;BMP180;55512;50.102;19.958;2022-11-18T14:49:53;97430.80;;;0.20
68510;BMP180;55512;50.102;19.958;2022-11-18T14:52:19;97440.60;;;0.20
68510;BMP180;55512;50.102;19.958;2022-11-18T14:54:45;97437.00;;;0.20
68510;BMP180;55512;50.102;19.958;2022-11-18T14:57:15;97433.80;;;0.10
68510;BMP180;55512;50.102;19.958;2022-11-18T14:59:41;97435.20;;;0.10
68510;BMP180;55512;50.102;19.958;2022-11-18T15:02:16;97431.60;;;0.10
68510;BMP180;55512;50.102;19.958;2022-11-18T15:04:42;97437.80;;;0.10
68510;BMP180;55512;50.102;19.958;2022-11-18T15:07:12;97442.60;;;0.20
68510;BMP180;55512;50.102;19.958;2022-11-18T15:09:39;97444.80;;;0.20
68510;BMP180;55512;50.102;19.958;2022-11-18T15:12:05;97455.80;;;0.20
68510;BMP180;55512;50.102;19.958;2022-11-18T15:14:30;97454.20;;;0.20
68510;BMP180;55512;50.102;19.958;2022-11-18T15:16:56;97456.80;;;0.10
68510;BMP180;55512;50.102;19.958;2022-11-18T15:19:21;97462.40;;;0.18
68510;BMP180;55512;50.102;19.958;2022-11-18T15:21:47;97464.20;;;0.10
68510;BMP180;55512;50.102;19.958;2022-11-18T15:24:12;97459.60;;;0.10
68510;BMP180;55512;50.102;19.958;2022-11-18T15:26:43;97460.20;;;0.08
68510;BMP180;55512;50.102;19.958;2022-11-18T15:29:17;97456.40;;;0.10
68510;BMP180;55512;50.102;19.958;2022-11-18T15:31:44;97462.40;;;0.20
68510;BMP180;55512;50.102;19.958;2022-11-18T15:34:10;97463.60;;;0.20
68510;BMP180;55512;50.102;19.958;2022-11-18T15:36:35;97465.00;;;0.20
68510;BMP180;55512;50.102;19.958;2022-11-18T15:39:01;97462.40;;;0.20
68510;BMP180;55512;50.102;19.958;2022-11-18T15:41:29;97463.20;;;0.30
68510;BMP180;55512;50.102;19.958;2022-11-18T15:43:58;97466.20;;;0.26
68510;BMP180;55512;50.102;19.958;2022-11-18T15:46:26;97463.60;;;0.20
68510;BMP180;55512;50.102;19.958;2022-11-18T15:49:01;97463.80;;;0.20
68510;BMP180;55512;50.102;19.958;2022-11-18T15:51:28;97467.80;;;0.24
68510;BMP180;55512;50.102;19.958;2022-11-18T15:53:54;97473.20;;;0.30
68510;BMP180;55512;50.102;19.958;2022-11-18T15:59:05;97471.20;;;0.30
68510;BMP180;55512;50.102;19.958;2022-11-18T16:01:33;97474.40;;;0.30
68510;BMP180;55512;50.102;19.958;2022-11-18T16:04:00;97474.80;;;0.34
68510;BMP180;55512;50.102;19.958;2022-11-18T16:06:25;97474.20;;;0.40
68510;BMP180;55512;50.102;19.958;2022-11-18T16:08:51;97484.20;;;0.40
68510;BMP180;55512;50.102;19.958;2022-11-18T16:11:18;97489.60;;;0.30